sensor_id;sensor_type;location;lat;lon;timestamp;P1;durP1;ratioP1;P2;durP2;ratioP2
78848;SDS011;68197;41.864;21.942;2023-12-14T00:00:25;41.92;;;27.60;;
78848;SDS011;68197;41.864;21.942;2023-12-14T00:02:51;43.90;;;27.55;;
78848;SDS011;68197;41.864;21.942;2023-12-14T00:05:17;42.08;;;27.52;;
78848;SDS011;68197;41.864;21.942;2023-12-14T00:07:43;25.67;;;17.45;;
78848;SDS011;68197;41.864;21.942;2023-12-14T00:10:10;24.98;;;16.50;;
78848;SDS011;68197;41.864;21.942;2023-12-14T00:12:37;45.40;;;27.95;;
78848;SDS011;68197;41.864;21.942;2023-12-14T00:15:04;22.23;;;14.80;;
78848;SDS011;68197;41.864;21.942;2023-12-14T00:17:30;23.15;;;15.70;;
78848;SDS011;68197;41.864;21.942;2023-12-14T00:19:56;20.40;;;14.10;;
78848;SDS011;68197;41.864;21.942;2023-12-14T00:22:22;21.33;;;14.10;;
78848;SDS011;68197;41.864;21.942;2023-12-14T00:24:49;26.60;;;16.83;;
78848;SDS011;68197;41.864;21.942;2023-12-14T00:27:15;31.20;;;20.60;;
78848;SDS011;68197;41.864;21.942;2023-12-14T00:29:41;40.08;;;22.83;;
78848;SDS011;68197;41.864;21.942;2023-12-14T00:32:07;32.67;;;20.45;;
78848;SDS011;68197;41.864;21.942;2023-12-14T00:34:33;43.88;;;30.48;;
78848;SDS011;68197;41.864;21.942;2023-12-14T00:37:00;29.10;;;20.17;;
78848;SDS011;68197;41.864;21.942;2023-12-14T00:39:26;34.55;;;22.00;;
78848;SDS011;68197;41.864;21.942;2023-12-14T00:41:52;36.30;;;23.48;;
78848;SDS011;68197;41.864;21.942;2023-12-14T00:44:18;39.38;;;24.02;;
78848;SDS011;68197;41.864;21.942;2023-12-14T00:46:44;31.73;;;19.75;;
78848;SDS011;68197;41.864;21.942;2023-12-14T00:49:10;29.02;;;17.80;;
78848;SDS011;68197;41.864;21.942;2023-12-14T00:51:37;33.03;;;20.13;;
78848;SDS011;68197;41.864;21.942;2023-12-14T00:54:03;40.50;;;25.10;;
78848;SDS011;68197;41.864;21.942;2023-12-14T00:56:29;55.75;;;32.72;;
78848;SDS011;68197;41.864;21.942;2023-12-14T00:58:55;43.10;;;27.27;;
78848;SDS011;68197;41.864;21.942;2023-12-14T01:01:21;33.25;;;22.50;;
78848;SDS011;68197;41.864;21.942;2023-12-14T01:03:47;35.45;;;22.25;;
78848;SDS011;68197;41.864;21.942;2023-12-14T01:06:13;39.20;;;24.23;;
78848;SDS011;68197;41.864;21.942;2023-12-14T01:08:39;29.52;;;18.98;;
78848;SDS011;68197;41.864;21.942;2023-12-14T01:11:06;25.33;;;17.15;;
78848;SDS011;68197;41.864;21.942;2023-12-14T01:13:32;22.55;;;14.38;;
78848;SDS011;68197;41.864;21.942;2023-12-14T01:15:58;24.17;;;16.23;;
78848;SDS011;68197;41.864;21.942;2023-12-14T01:18:24;17.10;;;11.70;;
78848;SDS011;68197;41.864;21.942;2023-12-14T01:20:51;22.20;;;15.55;;
78848;SDS011;68197;41.864;21.942;2023-12-14T01:23:17;31.05;;;20.63;;
78848;SDS011;68197;41.864;21.942;2023-12-14T01:25:43;31.75;;;21.10;;
78848;SDS011;68197;41.864;21.942;2023-12-14T01:28:09;28.92;;;19.58;;
78848;SDS011;68197;41.864;21.942;2023-12-14T01:30:35;27.60;;;18.42;;
78848;SDS011;68197;41.864;21.942;2023-12-14T01:33:01;26.15;;;17.70;;
78848;SDS011;68197;41.864;21.942;2023-12-14T01:35:28;26.98;;;19.08;;
78848;SDS011;68197;41.864;21.942;2023-12-14T01:37:55;25.40;;;17.08;;
78848;SDS011;68197;41.864;21.942;2023-12-14T01:40:21;25.38;;;15.70;;
78848;SDS011;68197;41.864;21.942;2023-12-14T01:42:47;20.35;;;14.75;;
78848;SDS011;68197;41.864;21.942;2023-12-14T01:45:13;22.92;;;16.33;;
78848;SDS011;68197;41.864;21.942;2023-12-14T01:47:44;23.15;;;15.13;;
78848;SDS011;68197;41.864;21.942;2023-12-14T01:50:10;26.48;;;18.15;;
78848;SDS011;68197;41.864;21.942;2023-12-14T01:52:36;22.73;;;15.18;;
78848;SDS011;68197;41.864;21.942;2023-12-14T01:55:02;20.25;;;12.55;;
78848;SDS011;68197;41.864;21.942;2023-12-14T01:57:29;17.35;;;11.82;;
78848;SDS011;68197;41.864;21.942;2023-12-14T01:59:55;15.60;;;10.38;;
78848;SDS011;68197;41.864;21.942;2023-12-14T02:02:21;14.60;;;10.50;;
78848;SDS011;68197;41.864;21.942;2023-12-14T02:04:47;13.63;;;8.90;;
78848;SDS011;68197;41.864;21.942;2023-12-14T02:07:13;16.02;;;10.00;;
78848;SDS011;68197;41.864;21.942;2023-12-14T02:09:40;18.73;;;11.82;;
78848;SDS011;68197;41.864;21.942;2023-12-14T02:12:06;18.30;;;12.07;;
78848;SDS011;68197;41.864;21.942;2023-12-14T02:14:32;21.10;;;12.82;;
78848;SDS011;68197;41.864;21.942;2023-12-14T02:16:58;21.92;;;13.07;;
78848;SDS011;68197;41.864;21.942;2023-12-14T02:19:24;17.30;;;10.57;;
78848;SDS011;68197;41.864;21.942;2023-12-14T02:21:50;15.90;;;10.73;;
78848;SDS011;68197;41.864;21.942;2023-12-14T02:24:16;18.30;;;11.10;;
78848;SDS011;68197;41.864;21.942;2023-12-14T02:26:43;20.70;;;13.05;;
78848;SDS011;68197;41.864;21.942;2023-12-14T02:29:09;20.80;;;13.70;;
78848;SDS011;68197;41.864;21.942;2023-12-14T02:31:35;18.50;;;12.38;;
78848;SDS011;68197;41.864;21.942;2023-12-14T02:34:01;20.10;;;14.15;;
78848;SDS011;68197;41.864;21.942;2023-12-14T02:36:27;20.40;;;13.60;;
78848;SDS011;68197;41.864;21.942;2023-12-14T02:38:53;18.58;;;13.45;;
78848;SDS011;68197;41.864;21.942;2023-12-14T02:41:19;19.20;;;11.88;;
78848;SDS011;68197;41.864;21.942;2023-12-14T02:43:45;16.98;;;11.88;;
78848;SDS011;68197;41.864;21.942;2023-12-14T02:46:11;22.63;;;14.73;;
78848;SDS011;68197;41.864;21.942;2023-12-14T02:48:43;20.83;;;14.30;;
78848;SDS011;68197;41.864;21.942;2023-12-14T02:51:12;15.82;;;10.48;;
78848;SDS011;68197;41.864;21.942;2023-12-14T02:53:39;17.35;;;12.05;;
78848;SDS011;68197;41.864;21.942;2023-12-14T02:56:05;14.55;;;10.63;;
78848;SDS011;68197;41.864;21.942;2023-12-14T02:58:32;13.85;;;9.43;;
78848;SDS011;68197;41.864;21.942;2023-12-14T03:00:58;16.33;;;10.30;;
78848;SDS011;68197;41.864;21.942;2023-12-14T03:03:24;16.70;;;10.30;;
78848;SDS011;68197;41.864;21.942;2023-12-14T03:05:50;15.05;;;9.20;;
78848;SDS011;68197;41.864;21.942;2023-12-14T03:08:16;16.23;;;10.52;;
78848;SDS011;68197;41.864;21.942;2023-12-14T03:10:42;15.07;;;11.13;;
78848;SDS011;68197;41.864;21.942;2023-12-14T03:13:08;15.93;;;10.90;;
78848;SDS011;68197;41.864;21.942;2023-12-14T03:15:35;19.95;;;13.63;;
78848;SDS011;68197;41.864;21.942;2023-12-14T03:18:01;19.17;;;13.40;;
78848;SDS011;68197;41.864;21.942;2023-12-14T03:20:28;21.80;;;14.77;;
78848;SDS011;68197;41.864;21.942;2023-12-14T03:22:54;24.88;;;16.00;;
78848;SDS011;68197;41.864;21.942;2023-12-14T03:25:20;27.77;;;16.15;;
78848;SDS011;68197;41.864;21.942;2023-12-14T03:27:46;23.80;;;14.90;;
78848;SDS011;68197;41.864;21.942;2023-12-14T03:30:13;26.75;;;15.80;;
78848;SDS011;68197;41.864;21.942;2023-12-14T03:32:39;33.05;;;19.48;;
78848;SDS011;68197;41.864;21.942;2023-12-14T03:35:05;33.28;;;18.70;;
78848;SDS011;68197;41.864;21.942;2023-12-14T03:37:33;28.15;;;17.20;;
78848;SDS011;68197;41.864;21.942;2023-12-14T03:39:59;75.55;;;38.95;;
78848;SDS011;68197;41.864;21.942;2023-12-14T03:42:26;41.60;;;24.23;;
78848;SDS011;68197;41.864;21.942;2023-12-14T03:44:52;41.40;;;24.95;;
78848;SDS011;68197;41.864;21.942;2023-12-14T03:47:18;42.03;;;23.67;;
78848;SDS011;68197;41.864;21.942;2023-12-14T03:49:44;43.33;;;23.55;;
78848;SDS011;68197;41.864;21.942;2023-12-14T03:52:10;58.33;;;36.30;;
78848;SDS011;68197;41.864;21.942;2023-12-14T03:54:36;46.17;;;23.13;;
78848;SDS011;68197;41.864;21.942;2023-12-14T03:57:02;21.95;;;12.35;;
78848;SDS011;68197;41.864;21.942;2023-12-14T03:59:28;39.72;;;26.60;;
78848;SDS011;68197;41.864;21.942;2023-12-14T04:04:23;30.90;;;17.88;;
78848;SDS011;68197;41.864;21.942;2023-12-14T04:06:49;38.08;;;21.00;;
78848;SDS011;68197;41.864;21.942;2023-12-14T04:09:16;42.53;;;24.33;;
78848;SDS011;68197;41.864;21.942;2023-12-14T04:11:42;33.20;;;19.23;;
78848;SDS011;68197;41.864;21.942;2023-12-14T04:14:09;27.90;;;17.35;;
78848;SDS011;68197;41.864;21.942;2023-12-14T04:16:35;40.28;;;26.08;;
78848;SDS011;68197;41.864;21.942;2023-12-14T04:19:01;21.30;;;13.02;;
78848;SDS011;68197;41.864;21.942;2023-12-14T04:21:28;28.98;;;18.92;;
78848;SDS011;68197;41.864;21.942;2023-12-14T04:23:54;27.30;;;18.83;;
78848;SDS011;68197;41.864;21.942;2023-12-14T04:26:20;23.55;;;15.93;;
78848;SDS011;68197;41.864;21.942;2023-12-14T04:28:46;24.23;;;14.90;;
78848;SDS011;68197;41.864;21.942;2023-12-14T04:31:12;27.42;;;17.13;;
78848;SDS011;68197;41.864;21.942;2023-12-14T04:33:38;25.50;;;16.40;;
78848;SDS011;68197;41.864;21.942;2023-12-14T04:36:05;26.77;;;16.50;;
78848;SDS011;68197;41.864;21.942;2023-12-14T04:38:31;25.50;;;15.38;;
78848;SDS011;68197;41.864;21.942;2023-12-14T04:40:57;22.13;;;14.10;;
78848;SDS011;68197;41.864;21.942;2023-12-14T04:43:23;30.08;;;18.88;;
78848;SDS011;68197;41.864;21.942;2023-12-14T04:45:49;29.88;;;18.42;;
78848;SDS011;68197;41.864;21.942;2023-12-14T04:48:15;25.67;;;16.55;;
78848;SDS011;68197;41.864;21.942;2023-12-14T04:50:42;27.60;;;14.85;;
78848;SDS011;68197;41.864;21.942;2023-12-14T04:53:08;24.27;;;14.75;;
78848;SDS011;68197;41.864;21.942;2023-12-14T04:55:34;22.42;;;13.85;;
78848;SDS011;68197;41.864;21.942;2023-12-14T04:58:00;16.00;;;11.43;;
78848;SDS011;68197;41.864;21.942;2023-12-14T05:00:26;20.00;;;11.57;;
78848;SDS011;68197;41.864;21.942;2023-12-14T05:02:52;16.42;;;10.48;;
78848;SDS011;68197;41.864;21.942;2023-12-14T05:05:18;18.17;;;11.98;;
78848;SDS011;68197;41.864;21.942;2023-12-14T05:07:44;20.33;;;13.77;;
78848;SDS011;68197;41.864;21.942;2023-12-14T05:10:10;18.92;;;13.05;;
78848;SDS011;68197;41.864;21.942;2023-12-14T05:12:37;24.75;;;16.88;;
78848;SDS011;68197;41.864;21.942;2023-12-14T05:15:04;22.65;;;13.80;;
78848;SDS011;68197;41.864;21.942;2023-12-14T05:17:31;22.40;;;14.43;;
78848;SDS011;68197;41.864;21.942;2023-12-14T05:19:57;23.75;;;15.57;;
78848;SDS011;68197;41.864;21.942;2023-12-14T05:22:24;25.67;;;16.63;;
78848;SDS011;68197;41.864;21.942;2023-12-14T05:24:50;23.92;;;16.27;;
78848;SDS011;68197;41.864;21.942;2023-12-14T05:27:16;26.30;;;17.70;;
78848;SDS011;68197;41.864;21.942;2023-12-14T05:29:42;24.40;;;15.57;;
78848;SDS011;68197;41.864;21.942;2023-12-14T05:32:08;26.40;;;19.35;;
78848;SDS011;68197;41.864;21.942;2023-12-14T05:34:34;30.52;;;18.25;;
78848;SDS011;68197;41.864;21.942;2023-12-14T05:37:00;33.25;;;19.40;;
78848;SDS011;68197;41.864;21.942;2023-12-14T05:39:26;25.75;;;16.98;;
78848;SDS011;68197;41.864;21.942;2023-12-14T05:41:53;28.30;;;18.70;;
78848;SDS011;68197;41.864;21.942;2023-12-14T05:44:19;28.73;;;18.95;;
78848;SDS011;68197;41.864;21.942;2023-12-14T05:46:47;33.65;;;20.75;;
78848;SDS011;68197;41.864;21.942;2023-12-14T05:49:16;27.98;;;16.48;;
78848;SDS011;68197;41.864;21.942;2023-12-14T05:51:42;19.27;;;13.05;;
78848;SDS011;68197;41.864;21.942;2023-12-14T05:54:08;23.77;;;15.57;;
78848;SDS011;68197;41.864;21.942;2023-12-14T05:56:34;29.55;;;18.85;;
78848;SDS011;68197;41.864;21.942;2023-12-14T05:59:00;32.13;;;21.00;;
78848;SDS011;68197;41.864;21.942;2023-12-14T06:01:27;34.17;;;23.83;;
78848;SDS011;68197;41.864;21.942;2023-12-14T06:03:53;45.72;;;27.73;;
78848;SDS011;68197;41.864;21.942;2023-12-14T06:06:19;86.03;;;47.20;;
78848;SDS011;68197;41.864;21.942;2023-12-14T06:08:45;45.38;;;29.02;;
78848;SDS011;68197;41.864;21.942;2023-12-14T06:11:11;43.22;;;28.23;;
78848;SDS011;68197;41.864;21.942;2023-12-14T06:13:37;33.60;;;22.50;;
78848;SDS011;68197;41.864;21.942;2023-12-14T06:16:03;30.08;;;20.88;;
78848;SDS011;68197;41.864;21.942;2023-12-14T06:18:30;27.23;;;19.85;;
78848;SDS011;68197;41.864;21.942;2023-12-14T06:20:56;64.32;;;29.58;;
78848;SDS011;68197;41.864;21.942;2023-12-14T06:23:22;63.80;;;32.85;;
78848;SDS011;68197;41.864;21.942;2023-12-14T06:25:50;28.83;;;17.60;;
78848;SDS011;68197;41.864;21.942;2023-12-14T06:28:16;38.55;;;25.80;;
78848;SDS011;68197;41.864;21.942;2023-12-14T06:30:42;44.03;;;30.60;;
78848;SDS011;68197;41.864;21.942;2023-12-14T06:33:09;30.95;;;22.92;;
78848;SDS011;68197;41.864;21.942;2023-12-14T06:35:35;41.22;;;30.33;;
78848;SDS011;68197;41.864;21.942;2023-12-14T06:38:01;38.78;;;27.88;;
78848;SDS011;68197;41.864;21.942;2023-12-14T06:40:27;31.27;;;22.20;;
78848;SDS011;68197;41.864;21.942;2023-12-14T06:42:53;67.00;;;40.70;;
78848;SDS011;68197;41.864;21.942;2023-12-14T06:45:19;51.78;;;30.45;;
78848;SDS011;68197;41.864;21.942;2023-12-14T06:47:45;23.17;;;13.90;;
78848;SDS011;68197;41.864;21.942;2023-12-14T06:50:12;47.83;;;30.27;;
78848;SDS011;68197;41.864;21.942;2023-12-14T06:52:39;52.30;;;33.25;;
78848;SDS011;68197;41.864;21.942;2023-12-14T06:55:05;46.78;;;32.22;;
78848;SDS011;68197;41.864;21.942;2023-12-14T06:57:32;52.05;;;32.75;;
78848;SDS011;68197;41.864;21.942;2023-12-14T06:59:58;55.17;;;39.28;;
78848;SDS011;68197;41.864;21.942;2023-12-14T07:02:24;60.90;;;41.08;;
78848;SDS011;68197;41.864;21.942;2023-12-14T07:04:50;54.08;;;36.13;;
78848;SDS011;68197;41.864;21.942;2023-12-14T07:07:16;79.07;;;47.28;;
78848;SDS011;68197;41.864;21.942;2023-12-14T07:09:42;54.78;;;36.67;;
78848;SDS011;68197;41.864;21.942;2023-12-14T07:12:11;46.30;;;33.65;;
78848;SDS011;68197;41.864;21.942;2023-12-14T07:14:38;44.38;;;33.08;;
78848;SDS011;68197;41.864;21.942;2023-12-14T07:17:04;43.08;;;30.27;;
78848;SDS011;68197;41.864;21.942;2023-12-14T07:19:30;48.97;;;33.13;;
78848;SDS011;68197;41.864;21.942;2023-12-14T07:21:57;47.45;;;36.10;;
78848;SDS011;68197;41.864;21.942;2023-12-14T07:24:23;44.28;;;32.72;;
78848;SDS011;68197;41.864;21.942;2023-12-14T07:26:49;47.95;;;32.47;;
78848;SDS011;68197;41.864;21.942;2023-12-14T07:29:15;61.75;;;43.47;;
78848;SDS011;68197;41.864;21.942;2023-12-14T07:31:41;63.20;;;42.70;;
78848;SDS011;68197;41.864;21.942;2023-12-14T07:34:07;61.33;;;40.30;;
78848;SDS011;68197;41.864;21.942;2023-12-14T07:36:33;50.60;;;32.53;;
78848;SDS011;68197;41.864;21.942;2023-12-14T07:38:59;55.85;;;34.65;;
78848;SDS011;68197;41.864;21.942;2023-12-14T07:41:26;68.18;;;40.25;;
78848;SDS011;68197;41.864;21.942;2023-12-14T07:43:55;61.58;;;36.55;;
78848;SDS011;68197;41.864;21.942;2023-12-14T07:46:21;52.20;;;30.00;;
78848;SDS011;68197;41.864;21.942;2023-12-14T07:48:47;50.10;;;30.20;;
78848;SDS011;68197;41.864;21.942;2023-12-14T07:51:14;53.75;;;35.85;;
78848;SDS011;68197;41.864;21.942;2023-12-14T07:53:40;66.90;;;43.45;;
78848;SDS011;68197;41.864;21.942;2023-12-14T07:56:07;161.88;;;100.93;;
78848;SDS011;68197;41.864;21.942;2023-12-14T07:58:34;169.20;;;110.68;;
78848;SDS011;68197;41.864;21.942;2023-12-14T08:01:00;151.50;;;101.38;;
78848;SDS011;68197;41.864;21.942;2023-12-14T08:03:26;101.93;;;64.53;;
78848;SDS011;68197;41.864;21.942;2023-12-14T08:05:52;149.52;;;103.60;;
78848;SDS011;68197;41.864;21.942;2023-12-14T08:08:18;116.30;;;80.60;;
78848;SDS011;68197;41.864;21.942;2023-12-14T08:10:45;102.10;;;68.68;;
78848;SDS011;68197;41.864;21.942;2023-12-14T08:13:11;111.15;;;78.30;;
78848;SDS011;68197;41.864;21.942;2023-12-14T08:15:37;114.25;;;74.55;;
78848;SDS011;68197;41.864;21.942;2023-12-14T08:18:03;114.68;;;76.68;;
78848;SDS011;68197;41.864;21.942;2023-12-14T08:20:29;95.53;;;62.15;;
78848;SDS011;68197;41.864;21.942;2023-12-14T08:22:55;105.00;;;70.47;;
78848;SDS011;68197;41.864;21.942;2023-12-14T08:25:21;87.22;;;58.20;;
78848;SDS011;68197;41.864;21.942;2023-12-14T08:27:47;78.30;;;51.92;;
78848;SDS011;68197;41.864;21.942;2023-12-14T08:30:14;65.38;;;45.85;;
78848;SDS011;68197;41.864;21.942;2023-12-14T08:32:40;61.83;;;44.35;;
78848;SDS011;68197;41.864;21.942;2023-12-14T08:35:06;46.20;;;30.52;;
78848;SDS011;68197;41.864;21.942;2023-12-14T08:37:32;45.22;;;32.85;;
78848;SDS011;68197;41.864;21.942;2023-12-14T08:39:58;34.80;;;26.13;;
78848;SDS011;68197;41.864;21.942;2023-12-14T08:42:24;33.63;;;23.45;;
78848;SDS011;68197;41.864;21.942;2023-12-14T08:44:50;37.72;;;27.52;;
78848;SDS011;68197;41.864;21.942;2023-12-14T08:47:17;46.67;;;31.67;;
78848;SDS011;68197;41.864;21.942;2023-12-14T08:49:43;42.92;;;30.17;;
78848;SDS011;68197;41.864;21.942;2023-12-14T08:52:09;38.13;;;27.92;;
78848;SDS011;68197;41.864;21.942;2023-12-14T08:54:36;33.45;;;24.45;;
78848;SDS011;68197;41.864;21.942;2023-12-14T08:57:03;31.67;;;23.42;;
78848;SDS011;68197;41.864;21.942;2023-12-14T08:59:29;34.22;;;24.75;;
78848;SDS011;68197;41.864;21.942;2023-12-14T09:01:55;30.83;;;24.02;;
78848;SDS011;68197;41.864;21.942;2023-12-14T09:04:21;31.23;;;23.02;;
78848;SDS011;68197;41.864;21.942;2023-12-14T09:06:47;45.22;;;31.70;;
78848;SDS011;68197;41.864;21.942;2023-12-14T09:09:13;38.78;;;28.45;;
78848;SDS011;68197;41.864;21.942;2023-12-14T09:11:39;34.80;;;26.90;;
78848;SDS011;68197;41.864;21.942;2023-12-14T09:14:05;37.75;;;27.40;;
78848;SDS011;68197;41.864;21.942;2023-12-14T09:16:31;32.63;;;23.98;;
78848;SDS011;68197;41.864;21.942;2023-12-14T09:18:57;28.77;;;19.38;;
78848;SDS011;68197;41.864;21.942;2023-12-14T09:21:23;22.05;;;16.23;;
78848;SDS011;68197;41.864;21.942;2023-12-14T09:23:50;17.75;;;13.38;;
78848;SDS011;68197;41.864;21.942;2023-12-14T09:26:18;23.50;;;16.65;;
78848;SDS011;68197;41.864;21.942;2023-12-14T09:28:44;21.33;;;16.48;;
78848;SDS011;68197;41.864;21.942;2023-12-14T09:31:10;20.13;;;15.43;;
78848;SDS011;68197;41.864;21.942;2023-12-14T09:33:37;20.33;;;14.05;;
78848;SDS011;68197;41.864;21.942;2023-12-14T09:36:03;29.38;;;21.67;;
78848;SDS011;68197;41.864;21.942;2023-12-14T09:38:29;57.13;;;37.95;;
78848;SDS011;68197;41.864;21.942;2023-12-14T09:40:55;45.97;;;33.80;;
78848;SDS011;68197;41.864;21.942;2023-12-14T09:43:22;41.67;;;28.85;;
78848;SDS011;68197;41.864;21.942;2023-12-14T09:45:48;39.78;;;29.05;;
78848;SDS011;68197;41.864;21.942;2023-12-14T09:48:15;40.28;;;28.95;;
78848;SDS011;68197;41.864;21.942;2023-12-14T09:50:41;58.17;;;38.05;;
78848;SDS011;68197;41.864;21.942;2023-12-14T09:53:08;99.30;;;66.53;;
78848;SDS011;68197;41.864;21.942;2023-12-14T09:55:34;79.40;;;51.92;;
78848;SDS011;68197;41.864;21.942;2023-12-14T09:58:00;56.78;;;39.03;;
78848;SDS011;68197;41.864;21.942;2023-12-14T10:00:38;43.95;;;31.17;;
78848;SDS011;68197;41.864;21.942;2023-12-14T10:06:03;30.88;;;22.98;;
78848;SDS011;68197;41.864;21.942;2023-12-14T10:08:29;28.02;;;20.90;;
78848;SDS011;68197;41.864;21.942;2023-12-14T10:10:55;22.05;;;17.38;;
78848;SDS011;68197;41.864;21.942;2023-12-14T10:13:22;35.95;;;25.95;;
78848;SDS011;68197;41.864;21.942;2023-12-14T10:16:01;47.22;;;33.63;;
78848;SDS011;68197;41.864;21.942;2023-12-14T10:18:28;87.65;;;51.75;;
78848;SDS011;68197;41.864;21.942;2023-12-14T10:20:54;91.63;;;65.25;;
78848;SDS011;68197;41.864;21.942;2023-12-14T10:23:21;42.20;;;30.08;;
78848;SDS011;68197;41.864;21.942;2023-12-14T10:25:48;47.00;;;32.17;;
78848;SDS011;68197;41.864;21.942;2023-12-14T10:28:14;38.58;;;25.42;;
78848;SDS011;68197;41.864;21.942;2023-12-14T10:30:40;30.42;;;23.27;;
78848;SDS011;68197;41.864;21.942;2023-12-14T10:33:07;39.55;;;29.10;;
78848;SDS011;68197;41.864;21.942;2023-12-14T10:35:33;50.55;;;35.55;;
78848;SDS011;68197;41.864;21.942;2023-12-14T10:38:01;41.97;;;31.85;;
78848;SDS011;68197;41.864;21.942;2023-12-14T10:40:28;34.40;;;23.73;;
78848;SDS011;68197;41.864;21.942;2023-12-14T10:42:55;22.98;;;16.85;;
78848;SDS011;68197;41.864;21.942;2023-12-14T10:45:26;28.45;;;19.45;;
78848;SDS011;68197;41.864;21.942;2023-12-14T10:47:53;22.42;;;16.08;;
78848;SDS011;68197;41.864;21.942;2023-12-14T10:50:19;26.90;;;19.45;;
78848;SDS011;68197;41.864;21.942;2023-12-14T10:52:46;33.42;;;25.38;;
78848;SDS011;68197;41.864;21.942;2023-12-14T10:55:18;40.80;;;29.80;;
78848;SDS011;68197;41.864;21.942;2023-12-14T10:57:46;35.38;;;25.55;;
78848;SDS011;68197;41.864;21.942;2023-12-14T11:00:13;17.88;;;13.77;;
78848;SDS011;68197;41.864;21.942;2023-12-14T11:02:42;24.33;;;17.30;;
78848;SDS011;68197;41.864;21.942;2023-12-14T11:05:11;26.67;;;18.02;;
78848;SDS011;68197;41.864;21.942;2023-12-14T11:10:10;22.40;;;16.05;;
78848;SDS011;68197;41.864;21.942;2023-12-14T11:12:36;19.63;;;14.63;;
78848;SDS011;68197;41.864;21.942;2023-12-14T11:15:06;20.75;;;14.68;;
78848;SDS011;68197;41.864;21.942;2023-12-14T11:17:34;18.80;;;13.20;;
78848;SDS011;68197;41.864;21.942;2023-12-14T11:22:45;24.70;;;19.23;;
78848;SDS011;68197;41.864;21.942;2023-12-14T11:25:11;27.85;;;19.67;;
78848;SDS011;68197;41.864;21.942;2023-12-14T11:27:42;28.92;;;20.40;;
78848;SDS011;68197;41.864;21.942;2023-12-14T11:30:10;30.02;;;20.35;;
78848;SDS011;68197;41.864;21.942;2023-12-14T11:32:36;38.30;;;23.00;;
78848;SDS011;68197;41.864;21.942;2023-12-14T11:35:02;34.25;;;21.95;;
78848;SDS011;68197;41.864;21.942;2023-12-14T11:37:28;43.63;;;28.25;;
78848;SDS011;68197;41.864;21.942;2023-12-14T11:39:55;36.45;;;24.67;;
78848;SDS011;68197;41.864;21.942;2023-12-14T11:42:21;28.90;;;17.80;;
78848;SDS011;68197;41.864;21.942;2023-12-14T11:44:47;29.60;;;19.70;;
78848;SDS011;68197;41.864;21.942;2023-12-14T11:47:13;31.85;;;20.52;;
78848;SDS011;68197;41.864;21.942;2023-12-14T11:49:40;29.35;;;19.15;;
78848;SDS011;68197;41.864;21.942;2023-12-14T11:52:06;23.90;;;15.70;;
78848;SDS011;68197;41.864;21.942;2023-12-14T11:54:32;23.67;;;17.15;;
78848;SDS011;68197;41.864;21.942;2023-12-14T11:57:01;15.20;;;11.23;;
78848;SDS011;68197;41.864;21.942;2023-12-14T11:59:28;16.48;;;11.73;;
78848;SDS011;68197;41.864;21.942;2023-12-14T12:01:58;16.02;;;12.02;;
78848;SDS011;68197;41.864;21.942;2023-12-14T12:04:25;17.98;;;12.38;;
78848;SDS011;68197;41.864;21.942;2023-12-14T12:07:04;15.63;;;11.30;;
78848;SDS011;68197;41.864;21.942;2023-12-14T12:09:40;13.70;;;9.57;;
78848;SDS011;68197;41.864;21.942;2023-12-14T12:12:07;12.73;;;9.27;;
78848;SDS011;68197;41.864;21.942;2023-12-14T12:14:34;13.95;;;9.98;;
78848;SDS011;68197;41.864;21.942;2023-12-14T12:17:00;14.43;;;9.88;;
78848;SDS011;68197;41.864;21.942;2023-12-14T12:19:27;16.75;;;12.43;;
78848;SDS011;68197;41.864;21.942;2023-12-14T12:21:53;17.13;;;12.73;;
78848;SDS011;68197;41.864;21.942;2023-12-14T12:24:19;15.27;;;11.10;;
78848;SDS011;68197;41.864;21.942;2023-12-14T12:26:46;14.25;;;10.02;;
78848;SDS011;68197;41.864;21.942;2023-12-14T12:29:12;16.65;;;11.27;;
78848;SDS011;68197;41.864;21.942;2023-12-14T12:31:38;13.77;;;11.15;;
78848;SDS011;68197;41.864;21.942;2023-12-14T12:34:05;16.45;;;11.32;;
78848;SDS011;68197;41.864;21.942;2023-12-14T12:36:31;15.98;;;11.05;;
78848;SDS011;68197;41.864;21.942;2023-12-14T12:38:57;17.58;;;12.40;;
78848;SDS011;68197;41.864;21.942;2023-12-14T12:41:23;14.32;;;11.20;;
78848;SDS011;68197;41.864;21.942;2023-12-14T12:43:49;14.68;;;10.75;;
78848;SDS011;68197;41.864;21.942;2023-12-14T12:46:15;14.05;;;10.63;;
78848;SDS011;68197;41.864;21.942;2023-12-14T12:48:41;18.08;;;12.45;;
78848;SDS011;68197;41.864;21.942;2023-12-14T12:51:07;17.17;;;10.75;;
78848;SDS011;68197;41.864;21.942;2023-12-14T12:53:33;15.02;;;9.68;;
78848;SDS011;68197;41.864;21.942;2023-12-14T12:55:59;12.98;;;9.88;;
78848;SDS011;68197;41.864;21.942;2023-12-14T12:58:26;14.15;;;9.88;;
78848;SDS011;68197;41.864;21.942;2023-12-14T13:00:53;14.45;;;10.98;;
78848;SDS011;68197;41.864;21.942;2023-12-14T13:03:20;14.55;;;10.15;;
78848;SDS011;68197;41.864;21.942;2023-12-14T13:05:46;11.85;;;8.40;;
78848;SDS011;68197;41.864;21.942;2023-12-14T13:08:13;13.80;;;9.13;;
78848;SDS011;68197;41.864;21.942;2023-12-14T13:10:40;11.95;;;8.98;;
78848;SDS011;68197;41.864;21.942;2023-12-14T13:13:06;17.25;;;10.18;;
78848;SDS011;68197;41.864;21.942;2023-12-14T13:15:33;14.48;;;10.35;;
78848;SDS011;68197;41.864;21.942;2023-12-14T13:18:00;14.52;;;8.85;;
78848;SDS011;68197;41.864;21.942;2023-12-14T13:20:26;13.65;;;7.90;;
78848;SDS011;68197;41.864;21.942;2023-12-14T13:22:52;7.75;;;5.35;;
78848;SDS011;68197;41.864;21.942;2023-12-14T13:25:18;9.63;;;6.10;;
78848;SDS011;68197;41.864;21.942;2023-12-14T13:27:47;10.73;;;7.38;;
78848;SDS011;68197;41.864;21.942;2023-12-14T13:30:13;4.45;;;3.20;;
78848;SDS011;68197;41.864;21.942;2023-12-14T13:32:42;9.40;;;5.90;;
78848;SDS011;68197;41.864;21.942;2023-12-14T13:35:08;11.88;;;8.48;;
78848;SDS011;68197;41.864;21.942;2023-12-14T13:37:34;7.85;;;5.13;;
78848;SDS011;68197;41.864;21.942;2023-12-14T13:40:00;7.55;;;5.13;;
78848;SDS011;68197;41.864;21.942;2023-12-14T13:42:28;6.15;;;3.97;;
78848;SDS011;68197;41.864;21.942;2023-12-14T13:44:54;8.82;;;5.20;;
78848;SDS011;68197;41.864;21.942;2023-12-14T13:47:20;7.22;;;3.78;;
78848;SDS011;68197;41.864;21.942;2023-12-14T13:49:47;6.60;;;2.58;;
78848;SDS011;68197;41.864;21.942;2023-12-14T13:52:13;4.13;;;2.85;;
78848;SDS011;68197;41.864;21.942;2023-12-14T13:54:40;5.70;;;3.60;;
78848;SDS011;68197;41.864;21.942;2023-12-14T13:57:06;4.65;;;3.08;;
78848;SDS011;68197;41.864;21.942;2023-12-14T13:59:32;3.60;;;2.25;;
78848;SDS011;68197;41.864;21.942;2023-12-14T14:01:58;5.57;;;4.05;;
78848;SDS011;68197;41.864;21.942;2023-12-14T14:04:24;10.55;;;3.90;;
78848;SDS011;68197;41.864;21.942;2023-12-14T14:06:50;5.63;;;3.30;;
78848;SDS011;68197;41.864;21.942;2023-12-14T14:09:16;4.93;;;2.88;;
78848;SDS011;68197;41.864;21.942;2023-12-14T14:11:42;6.05;;;3.67;;
78848;SDS011;68197;41.864;21.942;2023-12-14T14:14:12;5.32;;;3.78;;
78848;SDS011;68197;41.864;21.942;2023-12-14T14:16:39;8.00;;;4.40;;